Pagrindinis puslapis
METAR-TAF:

METAR-TAF

Oro uostai :

Ørsta-Volda, Norvegija

platuma: 62-11N, ilguma: 006-04E, Aukštis: 7 m

Dabartinis oras

Ataskaita buvo paskelbta 41 minutes, ne 04:20 UTC
Vėjas 3 kt nuo kintamojo kryptimis
Temperatūra 13°C
Drėgmė 77%
Slėgis 1017 hPa
Matomumas 10 km arba daugiau
nėra debesų žemiau 1500 m ir nėra kamuolinių lietaus debesų

METAR: ENOV 220420Z VRB03KT CAVOK 13/09 Q1017 RMK WIND RWY24 VRB03KT WIND 2090FT 14018KT

Laikas: 07:01 (05:01 UTC)

Prognozė

Ataskaita buvo paskelbta 3 valandos ir 1 minutes, ne 02:00 UTC
Prognozė galioja nuo 22 metu 03 UTC su 22 metu 12 UTC
Vėjas 5 kt nuo kintamojo kryptimis
Matomumas 10 km arba daugiau
nėra debesų žemiau 1500 m ir nėra kamuolinių lietaus debesų

TAF: ENOV 220200Z 2203/2212 VRB05KT CAVOK

Orai ataskaitas ir orų prognozės (METAR, TAF).

turimą stotys yra geltonos ir raudonos taškus žemėlapyje.

Perkelti pele per norėdami pamatyti stoties vardą.

Tada spustelėkite, norėdami matyti oro stebėjimo ir prognozės.

Norėdami pakeisti žemėlapį: spustelėkite ant žalios mygtukų su juodo kryžiaus žemyn,; žalią mygtuką su brūkšneliu, jei norite nutolinti; arba žalių rodyklių gretimoms žemėlapius.


METAR-TAF: